sensor_id;sensor_type;location;lat;lon;timestamp;P1;durP1;ratioP1;P2;durP2;ratioP2
32501;SDS011;18952;52.516;13.460;2022-08-04T00:01:23;10.80;;;5.15;;
32501;SDS011;18952;52.516;13.460;2022-08-04T00:04:07;6.97;;;5.20;;
32501;SDS011;18952;52.516;13.460;2022-08-04T00:07:15;9.20;;;4.80;;
32501;SDS011;18952;52.516;13.460;2022-08-04T00:10:13;9.43;;;5.00;;
32501;SDS011;18952;52.516;13.460;2022-08-04T00:12:55;11.50;;;4.88;;
32501;SDS011;18952;52.516;13.460;2022-08-04T00:15:33;12.45;;;6.45;;
32501;SDS011;18952;52.516;13.460;2022-08-04T00:18:08;7.95;;;6.13;;
32501;SDS011;18952;52.516;13.460;2022-08-04T00:20:43;12.73;;;5.70;;
32501;SDS011;18952;52.516;13.460;2022-08-04T00:23:16;10.48;;;4.53;;
32501;SDS011;18952;52.516;13.460;2022-08-04T00:26:16;8.07;;;5.40;;
32501;SDS011;18952;52.516;13.460;2022-08-04T00:28:54;7.63;;;5.35;;
32501;SDS011;18952;52.516;13.460;2022-08-04T00:31:31;11.35;;;5.22;;
32501;SDS011;18952;52.516;13.460;2022-08-04T00:34:26;6.55;;;4.57;;
32501;SDS011;18952;52.516;13.460;2022-08-04T00:36:55;10.80;;;4.53;;
32501;SDS011;18952;52.516;13.460;2022-08-04T00:39:26;8.25;;;4.70;;
32501;SDS011;18952;52.516;13.460;2022-08-04T00:52:32;9.43;;;4.40;;
32501;SDS011;18952;52.516;13.460;2022-08-04T00:55:03;8.13;;;5.90;;
32501;SDS011;18952;52.516;13.460;2022-08-04T00:57:49;12.45;;;5.90;;
32501;SDS011;18952;52.516;13.460;2022-08-04T01:00:58;9.93;;;5.20;;
32501;SDS011;18952;52.516;13.460;2022-08-04T01:03:54;17.00;;;7.00;;
32501;SDS011;18952;52.516;13.460;2022-08-04T01:10:09;6.82;;;4.22;;
32501;SDS011;18952;52.516;13.460;2022-08-04T01:16:16;6.95;;;3.97;;
32501;SDS011;18952;52.516;13.460;2022-08-04T01:19:04;11.00;;;4.45;;
32501;SDS011;18952;52.516;13.460;2022-08-04T01:22:04;11.65;;;4.50;;
32501;SDS011;18952;52.516;13.460;2022-08-04T01:25:27;7.88;;;4.40;;
32501;SDS011;18952;52.516;13.460;2022-08-04T01:31:29;7.95;;;4.72;;
32501;SDS011;18952;52.516;13.460;2022-08-04T01:34:19;7.32;;;4.55;;
32501;SDS011;18952;52.516;13.460;2022-08-04T01:37:37;7.35;;;4.50;;
32501;SDS011;18952;52.516;13.460;2022-08-04T01:39:50;6.50;;;5.03;;
32501;SDS011;18952;52.516;13.460;2022-08-04T01:42:30;6.68;;;5.03;;
32501;SDS011;18952;52.516;13.460;2022-08-04T01:45:02;5.93;;;5.00;;
32501;SDS011;18952;52.516;13.460;2022-08-04T01:47:52;12.68;;;5.00;;
32501;SDS011;18952;52.516;13.460;2022-08-04T01:50:23;10.35;;;5.05;;
32501;SDS011;18952;52.516;13.460;2022-08-04T01:52:54;9.15;;;4.68;;
32501;SDS011;18952;52.516;13.460;2022-08-04T01:55:25;6.90;;;5.20;;
32501;SDS011;18952;52.516;13.460;2022-08-04T01:58:23;11.93;;;5.65;;
32501;SDS011;18952;52.516;13.460;2022-08-04T02:00:59;10.05;;;5.00;;
32501;SDS011;18952;52.516;13.460;2022-08-04T02:03:37;8.50;;;5.35;;
32501;SDS011;18952;52.516;13.460;2022-08-04T02:09:37;6.78;;;4.47;;
32501;SDS011;18952;52.516;13.460;2022-08-04T02:12:24;6.15;;;4.50;;
32501;SDS011;18952;52.516;13.460;2022-08-04T02:15:02;10.50;;;4.50;;
32501;SDS011;18952;52.516;13.460;2022-08-04T02:18:01;8.23;;;5.35;;
32501;SDS011;18952;52.516;13.460;2022-08-04T02:20:34;12.43;;;5.40;;
32501;SDS011;18952;52.516;13.460;2022-08-04T02:23:27;9.90;;;5.38;;
32501;SDS011;18952;52.516;13.460;2022-08-04T02:25:59;9.50;;;4.85;;
32501;SDS011;18952;52.516;13.460;2022-08-04T02:32:04;6.07;;;4.22;;
32501;SDS011;18952;52.516;13.460;2022-08-04T02:37:28;9.85;;;4.63;;
32501;SDS011;18952;52.516;13.460;2022-08-04T02:40:05;8.82;;;4.22;;
32501;SDS011;18952;52.516;13.460;2022-08-04T02:42:33;9.70;;;4.32;;
32501;SDS011;18952;52.516;13.460;2022-08-04T02:45:04;7.45;;;4.45;;
32501;SDS011;18952;52.516;13.460;2022-08-04T02:47:40;12.18;;;4.38;;
32501;SDS011;18952;52.516;13.460;2022-08-04T02:50:40;8.48;;;4.30;;
32501;SDS011;18952;52.516;13.460;2022-08-04T02:53:22;9.90;;;4.22;;
32501;SDS011;18952;52.516;13.460;2022-08-04T02:55:52;7.63;;;3.95;;
32501;SDS011;18952;52.516;13.460;2022-08-04T02:58:24;9.68;;;4.35;;
32501;SDS011;18952;52.516;13.460;2022-08-04T03:00:56;8.98;;;4.35;;
32501;SDS011;18952;52.516;13.460;2022-08-04T03:03:30;7.65;;;4.20;;
32501;SDS011;18952;52.516;13.460;2022-08-04T03:26:58;7.40;;;5.00;;
32501;SDS011;18952;52.516;13.460;2022-08-04T03:57:32;12.90;;;4.82;;
32501;SDS011;18952;52.516;13.460;2022-08-04T04:00:39;9.20;;;5.10;;
32501;SDS011;18952;52.516;13.460;2022-08-04T04:03:53;12.65;;;5.20;;
32501;SDS011;18952;52.516;13.460;2022-08-04T04:07:03;10.43;;;4.97;;
32501;SDS011;18952;52.516;13.460;2022-08-04T04:18:19;12.13;;;5.15;;
32501;SDS011;18952;52.516;13.460;2022-08-04T04:46:22;13.45;;;6.65;;
32501;SDS011;18952;52.516;13.460;2022-08-04T04:49:24;13.45;;;6.82;;
32501;SDS011;18952;52.516;13.460;2022-08-04T04:52:57;10.88;;;5.65;;
32501;SDS011;18952;52.516;13.460;2022-08-04T04:55:30;13.43;;;5.75;;
32501;SDS011;18952;52.516;13.460;2022-08-04T04:58:11;11.48;;;5.15;;
32501;SDS011;18952;52.516;13.460;2022-08-04T05:09:31;8.52;;;5.65;;
32501;SDS011;18952;52.516;13.460;2022-08-04T05:12:30;8.95;;;5.85;;
32501;SDS011;18952;52.516;13.460;2022-08-04T05:15:30;13.98;;;5.88;;
32501;SDS011;18952;52.516;13.460;2022-08-04T05:18:02;13.77;;;6.15;;
32501;SDS011;18952;52.516;13.460;2022-08-04T05:20:42;9.10;;;6.28;;
32501;SDS011;18952;52.516;13.460;2022-08-04T05:23:18;18.33;;;6.65;;
32501;SDS011;18952;52.516;13.460;2022-08-04T05:26:01;9.93;;;6.53;;
32501;SDS011;18952;52.516;13.460;2022-08-04T05:28:45;15.02;;;6.65;;
32501;SDS011;18952;52.516;13.460;2022-08-04T05:31:33;13.52;;;6.13;;
32501;SDS011;18952;52.516;13.460;2022-08-04T05:34:38;12.27;;;6.10;;
32501;SDS011;18952;52.516;13.460;2022-08-04T05:37:02;9.95;;;6.00;;
32501;SDS011;18952;52.516;13.460;2022-08-04T05:39:45;14.23;;;6.38;;
32501;SDS011;18952;52.516;13.460;2022-08-04T05:42:27;16.67;;;6.20;;
32501;SDS011;18952;52.516;13.460;2022-08-04T05:45:02;13.57;;;6.25;;
32501;SDS011;18952;52.516;13.460;2022-08-04T05:47:37;14.90;;;6.80;;
32501;SDS011;18952;52.516;13.460;2022-08-04T05:50:10;15.07;;;7.60;;
32501;SDS011;18952;52.516;13.460;2022-08-04T05:52:47;17.48;;;7.00;;
32501;SDS011;18952;52.516;13.460;2022-08-04T05:55:27;16.45;;;7.75;;
32501;SDS011;18952;52.516;13.460;2022-08-04T05:58:18;13.32;;;7.60;;
32501;SDS011;18952;52.516;13.460;2022-08-04T06:00:45;14.50;;;7.50;;
32501;SDS011;18952;52.516;13.460;2022-08-04T06:03:20;14.52;;;7.70;;
32501;SDS011;18952;52.516;13.460;2022-08-04T06:05:48;23.10;;;7.50;;
32501;SDS011;18952;52.516;13.460;2022-08-04T06:08:17;18.85;;;7.65;;
32501;SDS011;18952;52.516;13.460;2022-08-04T06:10:45;24.38;;;8.23;;
32501;SDS011;18952;52.516;13.460;2022-08-04T06:13:20;26.15;;;7.65;;
32501;SDS011;18952;52.516;13.460;2022-08-04T06:16:20;15.65;;;6.80;;
32501;SDS011;18952;52.516;13.460;2022-08-04T06:18:59;18.55;;;7.13;;
32501;SDS011;18952;52.516;13.460;2022-08-04T06:21:55;20.25;;;6.68;;
32501;SDS011;18952;52.516;13.460;2022-08-04T06:24:32;16.40;;;6.90;;
32501;SDS011;18952;52.516;13.460;2022-08-04T06:27:12;20.63;;;6.43;;
32501;SDS011;18952;52.516;13.460;2022-08-04T06:29:44;16.92;;;6.63;;
32501;SDS011;18952;52.516;13.460;2022-08-04T06:32:18;29.88;;;7.20;;
32501;SDS011;18952;52.516;13.460;2022-08-04T06:34:56;17.45;;;6.88;;
32501;SDS011;18952;52.516;13.460;2022-08-04T06:37:30;27.90;;;7.38;;
32501;SDS011;18952;52.516;13.460;2022-08-04T06:40:12;23.85;;;6.95;;
32501;SDS011;18952;52.516;13.460;2022-08-04T06:42:57;15.40;;;6.32;;
32501;SDS011;18952;52.516;13.460;2022-08-04T06:45:27;14.98;;;6.53;;
32501;SDS011;18952;52.516;13.460;2022-08-04T06:47:59;16.70;;;6.80;;
32501;SDS011;18952;52.516;13.460;2022-08-04T06:50:31;18.23;;;6.20;;
32501;SDS011;18952;52.516;13.460;2022-08-04T06:53:35;10.05;;;6.15;;
32501;SDS011;18952;52.516;13.460;2022-08-04T06:56:11;14.75;;;5.88;;
32501;SDS011;18952;52.516;13.460;2022-08-04T06:58:51;16.05;;;5.88;;
32501;SDS011;18952;52.516;13.460;2022-08-04T07:01:20;22.92;;;5.78;;
32501;SDS011;18952;52.516;13.460;2022-08-04T07:03:51;23.52;;;6.85;;
32501;SDS011;18952;52.516;13.460;2022-08-04T07:06:20;19.15;;;6.53;;
32501;SDS011;18952;52.516;13.460;2022-08-04T07:08:54;14.77;;;6.20;;
32501;SDS011;18952;52.516;13.460;2022-08-04T07:11:32;11.82;;;5.80;;
32501;SDS011;18952;52.516;13.460;2022-08-04T07:14:09;14.57;;;6.47;;
32501;SDS011;18952;52.516;13.460;2022-08-04T07:16:49;18.17;;;6.32;;
32501;SDS011;18952;52.516;13.460;2022-08-04T07:19:20;17.52;;;6.00;;
32501;SDS011;18952;52.516;13.460;2022-08-04T07:21:48;18.90;;;5.68;;
32501;SDS011;18952;52.516;13.460;2022-08-04T07:24:47;17.92;;;5.63;;
32501;SDS011;18952;52.516;13.460;2022-08-04T07:27:30;15.07;;;5.30;;
32501;SDS011;18952;52.516;13.460;2022-08-04T07:30:18;16.55;;;5.70;;
32501;SDS011;18952;52.516;13.460;2022-08-04T07:32:52;22.20;;;6.32;;
32501;SDS011;18952;52.516;13.460;2022-08-04T07:35:29;13.65;;;5.03;;
32501;SDS011;18952;52.516;13.460;2022-08-04T07:38:24;11.20;;;5.10;;
32501;SDS011;18952;52.516;13.460;2022-08-04T07:40:54;13.75;;;5.05;;
32501;SDS011;18952;52.516;13.460;2022-08-04T07:43:27;20.30;;;5.32;;
32501;SDS011;18952;52.516;13.460;2022-08-04T07:45:57;10.63;;;4.70;;
32501;SDS011;18952;52.516;13.460;2022-08-04T07:48:26;16.42;;;5.25;;
32501;SDS011;18952;52.516;13.460;2022-08-04T07:50:56;10.18;;;4.30;;
32501;SDS011;18952;52.516;13.460;2022-08-04T07:53:35;22.38;;;5.10;;
32501;SDS011;18952;52.516;13.460;2022-08-04T07:56:23;22.80;;;5.22;;
32501;SDS011;18952;52.516;13.460;2022-08-04T07:58:53;14.27;;;4.60;;
32501;SDS011;18952;52.516;13.460;2022-08-04T08:01:22;14.60;;;4.72;;
32501;SDS011;18952;52.516;13.460;2022-08-04T08:03:52;12.93;;;4.85;;
32501;SDS011;18952;52.516;13.460;2022-08-04T08:06:29;15.82;;;4.70;;
32501;SDS011;18952;52.516;13.460;2022-08-04T08:09:13;18.55;;;4.72;;
32501;SDS011;18952;52.516;13.460;2022-08-04T08:11:43;18.83;;;4.82;;
32501;SDS011;18952;52.516;13.460;2022-08-04T08:14:35;15.77;;;4.60;;
32501;SDS011;18952;52.516;13.460;2022-08-04T08:17:12;17.13;;;4.57;;
32501;SDS011;18952;52.516;13.460;2022-08-04T08:19:42;8.10;;;4.30;;
32501;SDS011;18952;52.516;13.460;2022-08-04T08:22:10;8.88;;;4.18;;
32501;SDS011;18952;52.516;13.460;2022-08-04T08:24:40;15.43;;;4.50;;
32501;SDS011;18952;52.516;13.460;2022-08-04T08:27:15;18.33;;;4.10;;
32501;SDS011;18952;52.516;13.460;2022-08-04T08:29:47;9.93;;;4.30;;
32501;SDS011;18952;52.516;13.460;2022-08-04T08:32:14;9.75;;;3.83;;
32501;SDS011;18952;52.516;13.460;2022-08-04T08:34:43;14.27;;;4.57;;
32501;SDS011;18952;52.516;13.460;2022-08-04T08:43:57;13.05;;;4.57;;
32501;SDS011;18952;52.516;13.460;2022-08-04T08:46:53;13.95;;;4.75;;
32501;SDS011;18952;52.516;13.460;2022-08-04T08:50:02;13.00;;;4.72;;
32501;SDS011;18952;52.516;13.460;2022-08-04T08:52:47;11.93;;;4.13;;
32501;SDS011;18952;52.516;13.460;2022-08-04T08:55:36;12.70;;;4.13;;
32501;SDS011;18952;52.516;13.460;2022-08-04T08:58:31;10.82;;;4.03;;
32501;SDS011;18952;52.516;13.460;2022-08-04T09:01:30;12.98;;;4.25;;
32501;SDS011;18952;52.516;13.460;2022-08-04T09:22:21;9.68;;;3.55;;
32501;SDS011;18952;52.516;13.460;2022-08-04T09:25:27;12.40;;;3.40;;
32501;SDS011;18952;52.516;13.460;2022-08-04T09:28:06;7.32;;;3.38;;
32501;SDS011;18952;52.516;13.460;2022-08-04T09:31:16;11.55;;;3.20;;
32501;SDS011;18952;52.516;13.460;2022-08-04T09:34:44;9.75;;;3.40;;
32501;SDS011;18952;52.516;13.460;2022-08-04T09:37:47;14.20;;;3.60;;
32501;SDS011;18952;52.516;13.460;2022-08-04T09:50:39;7.93;;;3.50;;
32501;SDS011;18952;52.516;13.460;2022-08-04T09:56:07;8.27;;;2.78;;
32501;SDS011;18952;52.516;13.460;2022-08-04T09:58:49;10.43;;;3.70;;
32501;SDS011;18952;52.516;13.460;2022-08-04T10:01:39;11.50;;;3.40;;
32501;SDS011;18952;52.516;13.460;2022-08-04T10:04:09;8.55;;;2.80;;
32501;SDS011;18952;52.516;13.460;2022-08-04T10:10:02;8.73;;;2.83;;
32501;SDS011;18952;52.516;13.460;2022-08-04T10:28:45;7.40;;;3.08;;
32501;SDS011;18952;52.516;13.460;2022-08-04T10:32:05;7.18;;;3.42;;
32501;SDS011;18952;52.516;13.460;2022-08-04T10:40:55;7.18;;;2.95;;
32501;SDS011;18952;52.516;13.460;2022-08-04T10:46:23;9.02;;;2.38;;
32501;SDS011;18952;52.516;13.460;2022-08-04T10:49:12;8.50;;;2.42;;
32501;SDS011;18952;52.516;13.460;2022-08-04T11:00:24;4.90;;;2.30;;
32501;SDS011;18952;52.516;13.460;2022-08-04T11:05:53;5.40;;;2.55;;
32501;SDS011;18952;52.516;13.460;2022-08-04T11:08:30;6.18;;;2.22;;
32501;SDS011;18952;52.516;13.460;2022-08-04T11:15:10;5.40;;;2.25;;
32501;SDS011;18952;52.516;13.460;2022-08-04T11:17:24;5.47;;;2.28;;
32501;SDS011;18952;52.516;13.460;2022-08-04T11:20:10;10.20;;;2.73;;
32501;SDS011;18952;52.516;13.460;2022-08-04T11:23:10;10.25;;;2.75;;
32501;SDS011;18952;52.516;13.460;2022-08-04T11:25:58;4.88;;;2.05;;
32501;SDS011;18952;52.516;13.460;2022-08-04T11:28:48;5.72;;;2.10;;
32501;SDS011;18952;52.516;13.460;2022-08-04T11:31:38;4.65;;;2.10;;
32501;SDS011;18952;52.516;13.460;2022-08-04T11:34:18;7.35;;;1.90;;
32501;SDS011;18952;52.516;13.460;2022-08-04T11:39:56;4.78;;;2.47;;
32501;SDS011;18952;52.516;13.460;2022-08-04T11:46:35;5.70;;;1.98;;
32501;SDS011;18952;52.516;13.460;2022-08-04T11:49:28;7.65;;;2.13;;
32501;SDS011;18952;52.516;13.460;2022-08-04T11:52:25;6.72;;;2.20;;
32501;SDS011;18952;52.516;13.460;2022-08-04T11:55:06;4.65;;;1.73;;
32501;SDS011;18952;52.516;13.460;2022-08-04T11:57:39;6.57;;;1.98;;
32501;SDS011;18952;52.516;13.460;2022-08-04T12:00:21;9.60;;;2.17;;
32501;SDS011;18952;52.516;13.460;2022-08-04T12:10:07;18.55;;;2.25;;
32501;SDS011;18952;52.516;13.460;2022-08-04T12:12:28;7.28;;;2.03;;
32501;SDS011;18952;52.516;13.460;2022-08-04T12:20:59;6.38;;;1.67;;
32501;SDS011;18952;52.516;13.460;2022-08-04T12:23:31;8.30;;;2.05;;
32501;SDS011;18952;52.516;13.460;2022-08-04T12:26:07;5.63;;;1.80;;
32501;SDS011;18952;52.516;13.460;2022-08-04T12:28:42;5.40;;;2.03;;
32501;SDS011;18952;52.516;13.460;2022-08-04T12:34:42;3.92;;;1.75;;
32501;SDS011;18952;52.516;13.460;2022-08-04T12:37:33;7.03;;;2.10;;
32501;SDS011;18952;52.516;13.460;2022-08-04T12:41:06;7.60;;;2.03;;
32501;SDS011;18952;52.516;13.460;2022-08-04T12:43:14;7.20;;;2.30;;
32501;SDS011;18952;52.516;13.460;2022-08-04T12:46:04;5.53;;;2.38;;
32501;SDS011;18952;52.516;13.460;2022-08-04T12:48:37;7.32;;;1.92;;
32501;SDS011;18952;52.516;13.460;2022-08-04T12:51:14;9.52;;;2.10;;
32501;SDS011;18952;52.516;13.460;2022-08-04T12:54:12;6.82;;;2.20;;
32501;SDS011;18952;52.516;13.460;2022-08-04T12:57:00;3.67;;;1.90;;
32501;SDS011;18952;52.516;13.460;2022-08-04T12:59:44;6.97;;;1.70;;
32501;SDS011;18952;52.516;13.460;2022-08-04T13:02:27;5.82;;;1.67;;
32501;SDS011;18952;52.516;13.460;2022-08-04T13:05:00;7.83;;;1.80;;
32501;SDS011;18952;52.516;13.460;2022-08-04T13:07:46;3.58;;;1.60;;
32501;SDS011;18952;52.516;13.460;2022-08-04T13:10:16;8.15;;;1.90;;
32501;SDS011;18952;52.516;13.460;2022-08-04T13:12:57;4.38;;;1.70;;
32501;SDS011;18952;52.516;13.460;2022-08-04T13:15:34;10.40;;;1.80;;
32501;SDS011;18952;52.516;13.460;2022-08-04T13:18:23;6.18;;;1.70;;
32501;SDS011;18952;52.516;13.460;2022-08-04T13:21:10;5.70;;;1.70;;
32501;SDS011;18952;52.516;13.460;2022-08-04T13:23:52;2.92;;;1.55;;
32501;SDS011;18952;52.516;13.460;2022-08-04T13:26:45;8.10;;;2.15;;
32501;SDS011;18952;52.516;13.460;2022-08-04T13:29:49;5.68;;;1.45;;
32501;SDS011;18952;52.516;13.460;2022-08-04T13:32:28;6.80;;;1.90;;
32501;SDS011;18952;52.516;13.460;2022-08-04T13:35:02;6.13;;;2.30;;
32501;SDS011;18952;52.516;13.460;2022-08-04T13:37:35;5.25;;;2.15;;
32501;SDS011;18952;52.516;13.460;2022-08-04T13:40:08;6.70;;;2.42;;
32501;SDS011;18952;52.516;13.460;2022-08-04T13:42:53;9.48;;;2.63;;
32501;SDS011;18952;52.516;13.460;2022-08-04T13:45:22;4.70;;;2.28;;
32501;SDS011;18952;52.516;13.460;2022-08-04T13:48:03;9.88;;;2.00;;
32501;SDS011;18952;52.516;13.460;2022-08-04T13:50:56;5.60;;;1.83;;
32501;SDS011;18952;52.516;13.460;2022-08-04T13:53:31;9.40;;;1.60;;
32501;SDS011;18952;52.516;13.460;2022-08-04T13:56:00;4.78;;;2.00;;
32501;SDS011;18952;52.516;13.460;2022-08-04T13:58:32;6.85;;;1.67;;
32501;SDS011;18952;52.516;13.460;2022-08-04T14:01:19;4.80;;;1.40;;
32501;SDS011;18952;52.516;13.460;2022-08-04T14:04:04;8.95;;;1.60;;
32501;SDS011;18952;52.516;13.460;2022-08-04T14:09:46;7.35;;;1.63;;
32501;SDS011;18952;52.516;13.460;2022-08-04T14:12:33;5.68;;;1.25;;
32501;SDS011;18952;52.516;13.460;2022-08-04T14:15:31;4.45;;;1.40;;
32501;SDS011;18952;52.516;13.460;2022-08-04T14:18:31;4.50;;;1.20;;
32501;SDS011;18952;52.516;13.460;2022-08-04T14:21:01;6.90;;;1.25;;
32501;SDS011;18952;52.516;13.460;2022-08-04T14:26:32;5.28;;;1.60;;
32501;SDS011;18952;52.516;13.460;2022-08-04T14:29:09;8.70;;;1.60;;
32501;SDS011;18952;52.516;13.460;2022-08-04T14:32:02;7.50;;;1.50;;
32501;SDS011;18952;52.516;13.460;2022-08-04T14:34:47;6.60;;;1.60;;
32501;SDS011;18952;52.516;13.460;2022-08-04T14:37:16;6.35;;;1.70;;
32501;SDS011;18952;52.516;13.460;2022-08-04T14:39:50;6.68;;;1.20;;
32501;SDS011;18952;52.516;13.460;2022-08-04T14:42:45;7.85;;;1.33;;
32501;SDS011;18952;52.516;13.460;2022-08-04T14:45:38;10.05;;;1.33;;
32501;SDS011;18952;52.516;13.460;2022-08-04T14:48:20;2.60;;;1.30;;
32501;SDS011;18952;52.516;13.460;2022-08-04T14:50:49;5.60;;;1.50;;
32501;SDS011;18952;52.516;13.460;2022-08-04T14:53:20;4.43;;;1.30;;
32501;SDS011;18952;52.516;13.460;2022-08-04T14:55:51;4.15;;;1.92;;
32501;SDS011;18952;52.516;13.460;2022-08-04T14:58:28;6.53;;;1.50;;
32501;SDS011;18952;52.516;13.460;2022-08-04T15:01:09;3.60;;;1.45;;
32501;SDS011;18952;52.516;13.460;2022-08-04T15:03:46;4.72;;;1.38;;
32501;SDS011;18952;52.516;13.460;2022-08-04T15:06:22;6.22;;;1.38;;
32501;SDS011;18952;52.516;13.460;2022-08-04T15:09:01;8.00;;;1.50;;
32501;SDS011;18952;52.516;13.460;2022-08-04T15:11:34;9.27;;;1.40;;
32501;SDS011;18952;52.516;13.460;2022-08-04T15:14:10;3.63;;;1.58;;
32501;SDS011;18952;52.516;13.460;2022-08-04T15:17:01;3.83;;;1.30;;
32501;SDS011;18952;52.516;13.460;2022-08-04T15:19:57;4.28;;;1.30;;
32501;SDS011;18952;52.516;13.460;2022-08-04T15:22:29;4.65;;;1.63;;
32501;SDS011;18952;52.516;13.460;2022-08-04T15:24:58;7.60;;;1.60;;
32501;SDS011;18952;52.516;13.460;2022-08-04T15:27:29;5.53;;;2.10;;
32501;SDS011;18952;52.516;13.460;2022-08-04T15:30:03;6.57;;;1.43;;
32501;SDS011;18952;52.516;13.460;2022-08-04T15:32:59;3.55;;;1.50;;
32501;SDS011;18952;52.516;13.460;2022-08-04T15:35:53;10.15;;;1.48;;
32501;SDS011;18952;52.516;13.460;2022-08-04T15:38:41;8.02;;;1.30;;
32501;SDS011;18952;52.516;13.460;2022-08-04T15:41:40;7.47;;;1.90;;
32501;SDS011;18952;52.516;13.460;2022-08-04T15:48:33;6.60;;;1.67;;
32501;SDS011;18952;52.516;13.460;2022-08-04T15:53:28;6.28;;;1.90;;
32501;SDS011;18952;52.516;13.460;2022-08-04T15:59:01;10.68;;;2.33;;
32501;SDS011;18952;52.516;13.460;2022-08-04T16:01:30;5.60;;;1.60;;
32501;SDS011;18952;52.516;13.460;2022-08-04T16:04:04;7.25;;;1.52;;
32501;SDS011;18952;52.516;13.460;2022-08-04T16:07:04;4.25;;;1.27;;
32501;SDS011;18952;52.516;13.460;2022-08-04T16:09:32;4.93;;;1.30;;
32501;SDS011;18952;52.516;13.460;2022-08-04T16:12:32;9.43;;;1.70;;
32501;SDS011;18952;52.516;13.460;2022-08-04T16:18:18;6.25;;;1.80;;
32501;SDS011;18952;52.516;13.460;2022-08-04T16:20:54;7.13;;;2.08;;
32501;SDS011;18952;52.516;13.460;2022-08-04T16:26:42;6.78;;;2.42;;
32501;SDS011;18952;52.516;13.460;2022-08-04T16:29:41;3.78;;;1.60;;
32501;SDS011;18952;52.516;13.460;2022-08-04T16:32:14;7.90;;;1.70;;
32501;SDS011;18952;52.516;13.460;2022-08-04T16:34:55;4.60;;;1.85;;
32501;SDS011;18952;52.516;13.460;2022-08-04T16:37:41;3.10;;;1.70;;
32501;SDS011;18952;52.516;13.460;2022-08-04T16:40:30;9.05;;;1.50;;
32501;SDS011;18952;52.516;13.460;2022-08-04T16:43:15;3.55;;;1.48;;
32501;SDS011;18952;52.516;13.460;2022-08-04T16:45:44;4.55;;;1.63;;
32501;SDS011;18952;52.516;13.460;2022-08-04T16:48:27;5.68;;;1.33;;
32501;SDS011;18952;52.516;13.460;2022-08-04T16:51:09;3.88;;;1.48;;
32501;SDS011;18952;52.516;13.460;2022-08-04T16:53:43;5.47;;;1.58;;
32501;SDS011;18952;52.516;13.460;2022-08-04T16:56:32;2.78;;;1.70;;
32501;SDS011;18952;52.516;13.460;2022-08-04T16:59:07;5.47;;;1.90;;
32501;SDS011;18952;52.516;13.460;2022-08-04T17:01:37;5.07;;;1.52;;
32501;SDS011;18952;52.516;13.460;2022-08-04T17:04:33;8.43;;;1.83;;
32501;SDS011;18952;52.516;13.460;2022-08-04T17:07:07;5.75;;;2.13;;
32501;SDS011;18952;52.516;13.460;2022-08-04T17:09:48;8.90;;;2.20;;
32501;SDS011;18952;52.516;13.460;2022-08-04T17:12:17;4.50;;;1.70;;
32501;SDS011;18952;52.516;13.460;2022-08-04T17:14:58;5.88;;;1.60;;
32501;SDS011;18952;52.516;13.460;2022-08-04T17:17:26;6.78;;;1.80;;
32501;SDS011;18952;52.516;13.460;2022-08-04T17:20:15;8.30;;;1.90;;
32501;SDS011;18952;52.516;13.460;2022-08-04T17:22:42;4.63;;;2.05;;
32501;SDS011;18952;52.516;13.460;2022-08-04T17:25:13;11.02;;;2.22;;
32501;SDS011;18952;52.516;13.460;2022-08-04T17:27:44;7.45;;;2.95;;
32501;SDS011;18952;52.516;13.460;2022-08-04T17:30:50;11.13;;;2.30;;
32501;SDS011;18952;52.516;13.460;2022-08-04T17:33:22;5.75;;;2.25;;
32501;SDS011;18952;52.516;13.460;2022-08-04T17:36:16;11.60;;;2.58;;
32501;SDS011;18952;52.516;13.460;2022-08-04T17:38:45;8.68;;;3.15;;
32501;SDS011;18952;52.516;13.460;2022-08-04T17:41:18;6.00;;;2.17;;
32501;SDS011;18952;52.516;13.460;2022-08-04T17:44:05;10.38;;;3.92;;
32501;SDS011;18952;52.516;13.460;2022-08-04T17:46:36;7.15;;;3.15;;
32501;SDS011;18952;52.516;13.460;2022-08-04T17:51:56;9.18;;;2.63;;
32501;SDS011;18952;52.516;13.460;2022-08-04T17:54:49;8.85;;;2.88;;
32501;SDS011;18952;52.516;13.460;2022-08-04T17:57:29;12.73;;;3.70;;
32501;SDS011;18952;52.516;13.460;2022-08-04T17:59:59;11.57;;;2.53;;
32501;SDS011;18952;52.516;13.460;2022-08-04T18:02:55;11.32;;;3.17;;
32501;SDS011;18952;52.516;13.460;2022-08-04T18:05:27;6.38;;;2.80;;
32501;SDS011;18952;52.516;13.460;2022-08-04T18:08:25;8.63;;;2.95;;
32501;SDS011;18952;52.516;13.460;2022-08-04T18:11:16;15.63;;;3.28;;
32501;SDS011;18952;52.516;13.460;2022-08-04T18:13:51;12.25;;;4.28;;
32501;SDS011;18952;52.516;13.460;2022-08-04T18:16:29;11.70;;;3.85;;
32501;SDS011;18952;52.516;13.460;2022-08-04T18:19:09;13.65;;;5.00;;
32501;SDS011;18952;52.516;13.460;2022-08-04T18:21:47;17.45;;;8.05;;
32501;SDS011;18952;52.516;13.460;2022-08-04T18:24:28;15.32;;;7.47;;
32501;SDS011;18952;52.516;13.460;2022-08-04T18:27:24;17.85;;;6.38;;
32501;SDS011;18952;52.516;13.460;2022-08-04T18:30:06;11.77;;;6.65;;
32501;SDS011;18952;52.516;13.460;2022-08-04T18:32:56;15.40;;;5.85;;
32501;SDS011;18952;52.516;13.460;2022-08-04T18:35:51;11.45;;;5.47;;
32501;SDS011;18952;52.516;13.460;2022-08-04T18:38:40;9.93;;;5.53;;
32501;SDS011;18952;52.516;13.460;2022-08-04T18:41:23;22.50;;;7.95;;
32501;SDS011;18952;52.516;13.460;2022-08-04T18:43:54;18.70;;;7.68;;
32501;SDS011;18952;52.516;13.460;2022-08-04T18:46:25;22.35;;;7.18;;
32501;SDS011;18952;52.516;13.460;2022-08-04T18:48:57;21.05;;;8.05;;
32501;SDS011;18952;52.516;13.460;2022-08-04T18:51:25;16.27;;;6.65;;
32501;SDS011;18952;52.516;13.460;2022-08-04T18:53:57;18.38;;;7.85;;
32501;SDS011;18952;52.516;13.460;2022-08-04T18:56:29;16.38;;;6.70;;
32501;SDS011;18952;52.516;13.460;2022-08-04T18:59:03;15.30;;;6.65;;
32501;SDS011;18952;52.516;13.460;2022-08-04T19:01:37;16.23;;;6.85;;
32501;SDS011;18952;52.516;13.460;2022-08-04T19:04:28;20.55;;;8.00;;
32501;SDS011;18952;52.516;13.460;2022-08-04T19:07:03;15.88;;;8.07;;
32501;SDS011;18952;52.516;13.460;2022-08-04T19:09:59;16.13;;;8.32;;
32501;SDS011;18952;52.516;13.460;2022-08-04T19:12:27;15.85;;;6.68;;
32501;SDS011;18952;52.516;13.460;2022-08-04T19:15:10;18.45;;;8.07;;
32501;SDS011;18952;52.516;13.460;2022-08-04T19:17:46;13.65;;;6.80;;
32501;SDS011;18952;52.516;13.460;2022-08-04T19:20:27;10.50;;;6.28;;
32501;SDS011;18952;52.516;13.460;2022-08-04T19:22:58;13.20;;;7.65;;
32501;SDS011;18952;52.516;13.460;2022-08-04T19:25:50;17.25;;;7.10;;
32501;SDS011;18952;52.516;13.460;2022-08-04T19:28:39;15.15;;;8.00;;
32501;SDS011;18952;52.516;13.460;2022-08-04T19:31:12;23.05;;;8.68;;
32501;SDS011;18952;52.516;13.460;2022-08-04T19:33:45;19.48;;;9.18;;
32501;SDS011;18952;52.516;13.460;2022-08-04T19:36:31;23.58;;;10.65;;
32501;SDS011;18952;52.516;13.460;2022-08-04T19:39:06;19.75;;;10.52;;
32501;SDS011;18952;52.516;13.460;2022-08-04T19:41:38;24.60;;;9.80;;
32501;SDS011;18952;52.516;13.460;2022-08-04T19:44:32;16.92;;;10.02;;
32501;SDS011;18952;52.516;13.460;2022-08-04T19:47:10;20.63;;;10.65;;
32501;SDS011;18952;52.516;13.460;2022-08-04T19:50:04;19.27;;;9.10;;
32501;SDS011;18952;52.516;13.460;2022-08-04T19:52:41;18.20;;;9.23;;
32501;SDS011;18952;52.516;13.460;2022-08-04T19:55:19;12.50;;;6.60;;
32501;SDS011;18952;52.516;13.460;2022-08-04T19:58:07;21.60;;;8.85;;
32501;SDS011;18952;52.516;13.460;2022-08-04T20:00:35;16.75;;;9.45;;
32501;SDS011;18952;52.516;13.460;2022-08-04T20:03:08;18.15;;;8.40;;